sensor_id;sensor_type;location;lat;lon;timestamp;P1;durP1;ratioP1;P2;durP2;ratioP2
53714;SDS011;39608;55.630;37.864;2023-06-22T00:01:23;19.08;;;4.32;;
53714;SDS011;39608;55.630;37.864;2023-06-22T00:06:27;10.95;;;3.50;;
53714;SDS011;39608;55.630;37.864;2023-06-22T00:11:29;14.30;;;4.53;;
53714;SDS011;39608;55.630;37.864;2023-06-22T00:16:33;10.98;;;3.90;;
53714;SDS011;39608;55.630;37.864;2023-06-22T00:21:37;12.48;;;3.97;;
53714;SDS011;39608;55.630;37.864;2023-06-22T00:26:39;18.77;;;4.10;;
53714;SDS011;39608;55.630;37.864;2023-06-22T00:31:41;17.58;;;3.90;;
53714;SDS011;39608;55.630;37.864;2023-06-22T00:36:45;15.77;;;4.18;;
53714;SDS011;39608;55.630;37.864;2023-06-22T00:41:47;9.20;;;3.70;;
53714;SDS011;39608;55.630;37.864;2023-06-22T00:46:49;13.27;;;3.95;;
53714;SDS011;39608;55.630;37.864;2023-06-22T00:51:52;16.08;;;3.80;;
53714;SDS011;39608;55.630;37.864;2023-06-22T00:56:55;16.48;;;4.13;;
53714;SDS011;39608;55.630;37.864;2023-06-22T01:01:57;16.60;;;5.57;;
53714;SDS011;39608;55.630;37.864;2023-06-22T01:07:03;13.23;;;5.28;;
53714;SDS011;39608;55.630;37.864;2023-06-22T01:12:11;15.27;;;4.53;;
53714;SDS011;39608;55.630;37.864;2023-06-22T01:17:13;14.63;;;4.25;;
53714;SDS011;39608;55.630;37.864;2023-06-22T01:22:19;11.90;;;4.55;;
53714;SDS011;39608;55.630;37.864;2023-06-22T01:27:28;13.45;;;4.18;;
53714;SDS011;39608;55.630;37.864;2023-06-22T01:32:37;10.85;;;4.18;;
53714;SDS011;39608;55.630;37.864;2023-06-22T01:37:40;11.57;;;4.18;;
53714;SDS011;39608;55.630;37.864;2023-06-22T01:42:42;18.15;;;5.03;;
53714;SDS011;39608;55.630;37.864;2023-06-22T01:47:46;22.05;;;4.72;;
53714;SDS011;39608;55.630;37.864;2023-06-22T01:52:49;12.57;;;4.47;;
53714;SDS011;39608;55.630;37.864;2023-06-22T01:57:51;15.32;;;4.50;;
53714;SDS011;39608;55.630;37.864;2023-06-22T02:02:57;14.90;;;4.05;;
53714;SDS011;39608;55.630;37.864;2023-06-22T02:08:02;17.75;;;4.75;;
53714;SDS011;39608;55.630;37.864;2023-06-22T02:13:09;16.48;;;5.00;;
53714;SDS011;39608;55.630;37.864;2023-06-22T02:18:13;16.77;;;4.70;;
53714;SDS011;39608;55.630;37.864;2023-06-22T02:23:15;13.63;;;5.03;;
53714;SDS011;39608;55.630;37.864;2023-06-22T02:28:17;15.73;;;5.32;;
53714;SDS011;39608;55.630;37.864;2023-06-22T02:33:21;15.35;;;4.53;;
53714;SDS011;39608;55.630;37.864;2023-06-22T02:38:23;13.23;;;4.63;;
53714;SDS011;39608;55.630;37.864;2023-06-22T02:43:25;17.38;;;4.78;;
53714;SDS011;39608;55.630;37.864;2023-06-22T02:48:29;20.15;;;5.00;;
53714;SDS011;39608;55.630;37.864;2023-06-22T02:53:31;15.05;;;4.43;;
53714;SDS011;39608;55.630;37.864;2023-06-22T02:58:33;12.68;;;4.38;;
53714;SDS011;39608;55.630;37.864;2023-06-22T03:03:40;17.77;;;4.78;;
53714;SDS011;39608;55.630;37.864;2023-06-22T03:08:42;24.10;;;5.40;;
53714;SDS011;39608;55.630;37.864;2023-06-22T03:13:44;10.02;;;4.05;;
53714;SDS011;39608;55.630;37.864;2023-06-22T03:18:48;15.70;;;4.60;;
53714;SDS011;39608;55.630;37.864;2023-06-22T03:23:50;12.32;;;4.18;;
53714;SDS011;39608;55.630;37.864;2023-06-22T03:28:52;15.27;;;4.78;;
53714;SDS011;39608;55.630;37.864;2023-06-22T03:33:55;27.88;;;5.15;;
53714;SDS011;39608;55.630;37.864;2023-06-22T03:38:58;8.13;;;4.28;;
53714;SDS011;39608;55.630;37.864;2023-06-22T03:44:00;11.30;;;4.72;;
53714;SDS011;39608;55.630;37.864;2023-06-22T03:49:03;20.50;;;4.93;;
53714;SDS011;39608;55.630;37.864;2023-06-22T03:54:05;13.68;;;4.93;;
53714;SDS011;39608;55.630;37.864;2023-06-22T03:59:07;14.00;;;4.80;;
53714;SDS011;39608;55.630;37.864;2023-06-22T04:04:11;12.40;;;5.05;;
53714;SDS011;39608;55.630;37.864;2023-06-22T04:09:13;12.85;;;5.03;;
53714;SDS011;39608;55.630;37.864;2023-06-22T04:14:16;14.07;;;5.45;;
53714;SDS011;39608;55.630;37.864;2023-06-22T04:19:20;15.10;;;6.53;;
53714;SDS011;39608;55.630;37.864;2023-06-22T04:24:22;11.20;;;5.32;;
53714;SDS011;39608;55.630;37.864;2023-06-22T04:29:24;15.38;;;5.82;;
53714;SDS011;39608;55.630;37.864;2023-06-22T04:34:32;18.33;;;5.13;;
53714;SDS011;39608;55.630;37.864;2023-06-22T04:39:34;18.27;;;5.70;;
53714;SDS011;39608;55.630;37.864;2023-06-22T04:44:36;18.35;;;5.20;;
53714;SDS011;39608;55.630;37.864;2023-06-22T04:49:39;12.27;;;4.45;;
53714;SDS011;39608;55.630;37.864;2023-06-22T04:54:43;10.48;;;4.78;;
53714;SDS011;39608;55.630;37.864;2023-06-22T04:59:48;14.25;;;4.80;;
53714;SDS011;39608;55.630;37.864;2023-06-22T05:04:51;14.15;;;5.10;;
53714;SDS011;39608;55.630;37.864;2023-06-22T05:09:57;16.00;;;4.75;;
53714;SDS011;39608;55.630;37.864;2023-06-22T05:14:59;11.32;;;5.22;;
53714;SDS011;39608;55.630;37.864;2023-06-22T05:20:03;12.98;;;4.50;;
53714;SDS011;39608;55.630;37.864;2023-06-22T05:25:08;10.43;;;4.55;;
53714;SDS011;39608;55.630;37.864;2023-06-22T05:30:11;17.25;;;4.32;;
53714;SDS011;39608;55.630;37.864;2023-06-22T05:35:14;15.90;;;4.68;;
53714;SDS011;39608;55.630;37.864;2023-06-22T05:40:17;11.68;;;4.78;;
53714;SDS011;39608;55.630;37.864;2023-06-22T05:45:19;14.32;;;5.82;;
53714;SDS011;39608;55.630;37.864;2023-06-22T05:50:23;13.63;;;4.40;;
53714;SDS011;39608;55.630;37.864;2023-06-22T05:55:25;7.80;;;3.38;;
53714;SDS011;39608;55.630;37.864;2023-06-22T06:00:27;8.13;;;3.80;;
53714;SDS011;39608;55.630;37.864;2023-06-22T06:05:30;8.05;;;2.70;;
53714;SDS011;39608;55.630;37.864;2023-06-22T06:10:32;7.75;;;3.40;;
53714;SDS011;39608;55.630;37.864;2023-06-22T06:15:35;9.35;;;3.00;;
53714;SDS011;39608;55.630;37.864;2023-06-22T06:20:38;8.98;;;2.70;;
53714;SDS011;39608;55.630;37.864;2023-06-22T06:25:40;8.45;;;3.13;;
53714;SDS011;39608;55.630;37.864;2023-06-22T06:30:42;7.60;;;3.00;;
53714;SDS011;39608;55.630;37.864;2023-06-22T06:35:46;5.82;;;2.97;;
53714;SDS011;39608;55.630;37.864;2023-06-22T06:40:48;7.90;;;2.70;;
53714;SDS011;39608;55.630;37.864;2023-06-22T06:45:50;9.48;;;2.88;;
53714;SDS011;39608;55.630;37.864;2023-06-22T06:50:53;13.13;;;3.65;;
53714;SDS011;39608;55.630;37.864;2023-06-22T06:55:55;7.95;;;2.55;;
53714;SDS011;39608;55.630;37.864;2023-06-22T07:00:57;7.35;;;2.83;;
53714;SDS011;39608;55.630;37.864;2023-06-22T07:06:01;7.10;;;2.47;;
53714;SDS011;39608;55.630;37.864;2023-06-22T07:11:03;7.70;;;2.47;;
53714;SDS011;39608;55.630;37.864;2023-06-22T07:16:04;2.78;;;2.13;;
53714;SDS011;39608;55.630;37.864;2023-06-22T07:21:08;4.35;;;2.38;;
53714;SDS011;39608;55.630;37.864;2023-06-22T07:26:10;6.15;;;3.13;;
53714;SDS011;39608;55.630;37.864;2023-06-22T07:31:12;4.43;;;2.58;;
53714;SDS011;39608;55.630;37.864;2023-06-22T07:36:16;10.10;;;2.90;;
53714;SDS011;39608;55.630;37.864;2023-06-22T07:41:18;8.95;;;2.80;;
53714;SDS011;39608;55.630;37.864;2023-06-22T07:46:20;7.90;;;2.95;;
53714;SDS011;39608;55.630;37.864;2023-06-22T07:51:23;8.60;;;3.00;;
53714;SDS011;39608;55.630;37.864;2023-06-22T07:56:26;7.22;;;2.70;;
53714;SDS011;39608;55.630;37.864;2023-06-22T08:01:28;9.82;;;2.65;;
53714;SDS011;39608;55.630;37.864;2023-06-22T08:06:31;6.25;;;2.88;;
53714;SDS011;39608;55.630;37.864;2023-06-22T08:11:33;11.85;;;3.03;;
53714;SDS011;39608;55.630;37.864;2023-06-22T08:16:35;8.75;;;3.20;;
53714;SDS011;39608;55.630;37.864;2023-06-22T08:21:39;8.00;;;2.70;;
53714;SDS011;39608;55.630;37.864;2023-06-22T08:26:40;19.17;;;2.90;;
53714;SDS011;39608;55.630;37.864;2023-06-22T08:31:42;3.95;;;2.70;;
53714;SDS011;39608;55.630;37.864;2023-06-22T08:36:46;6.32;;;2.85;;
53714;SDS011;39608;55.630;37.864;2023-06-22T08:41:52;6.68;;;2.47;;
53714;SDS011;39608;55.630;37.864;2023-06-22T08:46:54;2.95;;;2.42;;
53714;SDS011;39608;55.630;37.864;2023-06-22T08:51:57;4.68;;;2.17;;
53714;SDS011;39608;55.630;37.864;2023-06-22T08:56:59;5.10;;;2.72;;
53714;SDS011;39608;55.630;37.864;2023-06-22T09:02:01;12.43;;;2.33;;
53714;SDS011;39608;55.630;37.864;2023-06-22T09:07:05;9.95;;;2.50;;
53714;SDS011;39608;55.630;37.864;2023-06-22T09:12:08;13.13;;;2.67;;
53714;SDS011;39608;55.630;37.864;2023-06-22T09:17:12;5.57;;;2.63;;
53714;SDS011;39608;55.630;37.864;2023-06-22T09:22:16;9.20;;;2.45;;
53714;SDS011;39608;55.630;37.864;2023-06-22T09:27:18;4.20;;;2.20;;
53714;SDS011;39608;55.630;37.864;2023-06-22T09:32:20;7.95;;;2.70;;
53714;SDS011;39608;55.630;37.864;2023-06-22T09:37:24;4.68;;;2.67;;
53714;SDS011;39608;55.630;37.864;2023-06-22T09:42:25;6.50;;;2.50;;
53714;SDS011;39608;55.630;37.864;2023-06-22T09:47:28;4.95;;;2.33;;
53714;SDS011;39608;55.630;37.864;2023-06-22T09:52:31;8.48;;;2.75;;
53714;SDS011;39608;55.630;37.864;2023-06-22T09:57:33;7.20;;;2.83;;
53714;SDS011;39608;55.630;37.864;2023-06-22T10:02:35;4.10;;;2.58;;
53714;SDS011;39608;55.630;37.864;2023-06-22T10:07:39;5.80;;;2.95;;
53714;SDS011;39608;55.630;37.864;2023-06-22T10:12:44;4.45;;;2.55;;
53714;SDS011;39608;55.630;37.864;2023-06-22T10:17:47;6.40;;;2.58;;
53714;SDS011;39608;55.630;37.864;2023-06-22T10:22:51;9.63;;;2.70;;
53714;SDS011;39608;55.630;37.864;2023-06-22T10:27:53;3.95;;;2.53;;
53714;SDS011;39608;55.630;37.864;2023-06-22T10:32:55;5.88;;;2.47;;
53714;SDS011;39608;55.630;37.864;2023-06-22T11:54:48;2.88;;;2.67;;
53714;SDS011;39608;55.630;37.864;2023-06-22T11:59:52;6.55;;;3.15;;
53714;SDS011;39608;55.630;37.864;2023-06-22T12:04:55;3.60;;;3.15;;
53714;SDS011;39608;55.630;37.864;2023-06-22T12:10:00;3.30;;;2.90;;
53714;SDS011;39608;55.630;37.864;2023-06-22T12:15:04;13.73;;;3.65;;
53714;SDS011;39608;55.630;37.864;2023-06-22T12:20:08;6.82;;;3.22;;
53714;SDS011;39608;55.630;37.864;2023-06-22T12:25:12;6.82;;;3.53;;
53714;SDS011;39608;55.630;37.864;2023-06-22T12:30:17;9.90;;;3.30;;
53714;SDS011;39608;55.630;37.864;2023-06-22T12:35:19;6.40;;;3.45;;
53714;SDS011;39608;55.630;37.864;2023-06-22T12:40:25;4.15;;;3.33;;
53714;SDS011;39608;55.630;37.864;2023-06-22T12:45:28;3.70;;;3.20;;
53714;SDS011;39608;55.630;37.864;2023-06-22T12:50:34;5.35;;;3.63;;
53714;SDS011;39608;55.630;37.864;2023-06-22T12:55:37;7.75;;;4.05;;
53714;SDS011;39608;55.630;37.864;2023-06-22T13:00:40;7.78;;;4.20;;
53714;SDS011;39608;55.630;37.864;2023-06-22T13:05:42;7.82;;;4.07;;
53714;SDS011;39608;55.630;37.864;2023-06-22T13:10:46;9.60;;;4.32;;
53714;SDS011;39608;55.630;37.864;2023-06-22T13:15:48;9.80;;;4.20;;
53714;SDS011;39608;55.630;37.864;2023-06-22T13:20:53;8.50;;;4.05;;
53714;SDS011;39608;55.630;37.864;2023-06-22T13:26:00;6.70;;;4.20;;
53714;SDS011;39608;55.630;37.864;2023-06-22T13:31:03;7.00;;;4.77;;
53714;SDS011;39608;55.630;37.864;2023-06-22T13:36:06;15.70;;;4.70;;
53714;SDS011;39608;55.630;37.864;2023-06-22T13:41:09;8.60;;;4.60;;
53714;SDS011;39608;55.630;37.864;2023-06-22T13:46:12;14.60;;;5.65;;
53714;SDS011;39608;55.630;37.864;2023-06-22T15:55:12;16.23;;;3.80;;
53714;SDS011;39608;55.630;37.864;2023-06-22T16:00:15;7.78;;;3.28;;
53714;SDS011;39608;55.630;37.864;2023-06-22T16:05:19;7.80;;;3.28;;
53714;SDS011;39608;55.630;37.864;2023-06-22T16:10:23;5.68;;;3.15;;
53714;SDS011;39608;55.630;37.864;2023-06-22T16:15:25;8.90;;;3.30;;
53714;SDS011;39608;55.630;37.864;2023-06-22T16:20:27;8.82;;;2.85;;
53714;SDS011;39608;55.630;37.864;2023-06-22T16:25:31;9.88;;;3.47;;
53714;SDS011;39608;55.630;37.864;2023-06-22T16:30:34;6.45;;;3.40;;
53714;SDS011;39608;55.630;37.864;2023-06-22T16:35:36;7.53;;;3.38;;
53714;SDS011;39608;55.630;37.864;2023-06-22T16:40:50;13.98;;;3.35;;
53714;SDS011;39608;55.630;37.864;2023-06-22T16:58:51;4.47;;;3.05;;
53714;SDS011;39608;55.630;37.864;2023-06-22T17:03:58;4.30;;;2.73;;
53714;SDS011;39608;55.630;37.864;2023-06-22T17:09:05;7.78;;;3.08;;
53714;SDS011;39608;55.630;37.864;2023-06-22T17:20:09;5.95;;;2.60;;
53714;SDS011;39608;55.630;37.864;2023-06-22T17:25:12;7.70;;;2.60;;
53714;SDS011;39608;55.630;37.864;2023-06-22T17:30:16;3.17;;;1.88;;
53714;SDS011;39608;55.630;37.864;2023-06-22T17:35:22;3.38;;;1.95;;
53714;SDS011;39608;55.630;37.864;2023-06-22T17:40:25;8.52;;;1.92;;
53714;SDS011;39608;55.630;37.864;2023-06-22T17:45:27;3.25;;;2.03;;
53714;SDS011;39608;55.630;37.864;2023-06-22T17:50:31;3.58;;;1.83;;
53714;SDS011;39608;55.630;37.864;2023-06-22T17:55:33;12.15;;;2.00;;
53714;SDS011;39608;55.630;37.864;2023-06-22T18:00:36;2.95;;;1.85;;
53714;SDS011;39608;55.630;37.864;2023-06-22T18:05:39;4.88;;;2.08;;
53714;SDS011;39608;55.630;37.864;2023-06-22T18:10:47;3.78;;;1.52;;
53714;SDS011;39608;55.630;37.864;2023-06-22T18:15:50;5.35;;;1.95;;
53714;SDS011;39608;55.630;37.864;2023-06-22T18:20:55;2.38;;;1.77;;
53714;SDS011;39608;55.630;37.864;2023-06-22T18:25:58;5.13;;;2.40;;
53714;SDS011;39608;55.630;37.864;2023-06-22T18:31:00;4.82;;;1.75;;
53714;SDS011;39608;55.630;37.864;2023-06-22T18:36:04;3.38;;;1.85;;
53714;SDS011;39608;55.630;37.864;2023-06-22T19:36:06;3.53;;;1.30;;
53714;SDS011;39608;55.630;37.864;2023-06-22T19:41:08;2.28;;;1.40;;
53714;SDS011;39608;55.630;37.864;2023-06-22T19:46:10;2.28;;;1.40;;
53714;SDS011;39608;55.630;37.864;2023-06-22T19:51:15;2.72;;;1.40;;
53714;SDS011;39608;55.630;37.864;2023-06-22T19:56:19;2.45;;;1.55;;
53714;SDS011;39608;55.630;37.864;2023-06-22T20:01:21;2.60;;;1.25;;
53714;SDS011;39608;55.630;37.864;2023-06-22T20:06:25;2.00;;;1.40;;
53714;SDS011;39608;55.630;37.864;2023-06-22T20:11:28;4.18;;;1.45;;
53714;SDS011;39608;55.630;37.864;2023-06-22T20:16:37;4.10;;;1.65;;
53714;SDS011;39608;55.630;37.864;2023-06-22T20:21:49;9.90;;;1.77;;
53714;SDS011;39608;55.630;37.864;2023-06-22T20:26:51;7.45;;;1.80;;
53714;SDS011;39608;55.630;37.864;2023-06-22T20:32:04;4.80;;;2.22;;
53714;SDS011;39608;55.630;37.864;2023-06-22T20:37:08;1.52;;;1.38;;
53714;SDS011;39608;55.630;37.864;2023-06-22T20:42:14;6.30;;;1.98;;
53714;SDS011;39608;55.630;37.864;2023-06-22T20:47:17;5.22;;;2.15;;
53714;SDS011;39608;55.630;37.864;2023-06-22T20:52:21;6.25;;;2.10;;
53714;SDS011;39608;55.630;37.864;2023-06-22T20:57:24;3.03;;;2.00;;
53714;SDS011;39608;55.630;37.864;2023-06-22T21:02:26;5.25;;;1.95;;
53714;SDS011;39608;55.630;37.864;2023-06-22T21:07:29;3.47;;;1.65;;
53714;SDS011;39608;55.630;37.864;2023-06-22T21:12:34;6.32;;;2.67;;
53714;SDS011;39608;55.630;37.864;2023-06-22T21:17:36;2.70;;;1.75;;
53714;SDS011;39608;55.630;37.864;2023-06-22T21:22:40;3.50;;;2.13;;
53714;SDS011;39608;55.630;37.864;2023-06-22T21:27:43;5.03;;;2.10;;
53714;SDS011;39608;55.630;37.864;2023-06-22T21:32:45;4.15;;;1.88;;
53714;SDS011;39608;55.630;37.864;2023-06-22T21:37:49;2.42;;;1.88;;
53714;SDS011;39608;55.630;37.864;2023-06-22T21:42:51;2.67;;;1.95;;
53714;SDS011;39608;55.630;37.864;2023-06-22T21:47:53;9.10;;;2.15;;
53714;SDS011;39608;55.630;37.864;2023-06-22T21:52:58;7.15;;;2.10;;
53714;SDS011;39608;55.630;37.864;2023-06-22T21:58:02;3.95;;;2.05;;
53714;SDS011;39608;55.630;37.864;2023-06-22T22:03:04;5.97;;;1.90;;
53714;SDS011;39608;55.630;37.864;2023-06-22T22:08:07;4.28;;;1.83;;
53714;SDS011;39608;55.630;37.864;2023-06-22T22:13:09;4.03;;;1.50;;
53714;SDS011;39608;55.630;37.864;2023-06-22T22:18:12;2.97;;;1.50;;
53714;SDS011;39608;55.630;37.864;2023-06-22T22:23:15;3.97;;;1.85;;
53714;SDS011;39608;55.630;37.864;2023-06-22T22:28:18;8.45;;;1.50;;
53714;SDS011;39608;55.630;37.864;2023-06-22T22:33:20;11.27;;;1.75;;
53714;SDS011;39608;55.630;37.864;2023-06-22T22:38:23;8.35;;;1.60;;
53714;SDS011;39608;55.630;37.864;2023-06-22T22:43:25;2.08;;;1.33;;
53714;SDS011;39608;55.630;37.864;2023-06-22T22:48:27;3.00;;;1.30;;
53714;SDS011;39608;55.630;37.864;2023-06-22T22:53:33;3.05;;;1.55;;
53714;SDS011;39608;55.630;37.864;2023-06-22T22:58:36;4.28;;;1.40;;
53714;SDS011;39608;55.630;37.864;2023-06-22T23:03:38;4.07;;;1.70;;
53714;SDS011;39608;55.630;37.864;2023-06-22T23:08:41;5.15;;;1.70;;
53714;SDS011;39608;55.630;37.864;2023-06-22T23:13:43;2.33;;;1.50;;
53714;SDS011;39608;55.630;37.864;2023-06-22T23:18:46;2.03;;;1.23;;
53714;SDS011;39608;55.630;37.864;2023-06-22T23:23:49;1.77;;;1.38;;
53714;SDS011;39608;55.630;37.864;2023-06-22T23:28:51;3.85;;;1.30;;
53714;SDS011;39608;55.630;37.864;2023-06-22T23:33:53;1.58;;;1.05;;
53714;SDS011;39608;55.630;37.864;2023-06-22T23:38:56;3.88;;;1.25;;
53714;SDS011;39608;55.630;37.864;2023-06-22T23:43:58;7.63;;;1.85;;
53714;SDS011;39608;55.630;37.864;2023-06-22T23:49:00;4.40;;;1.30;;
53714;SDS011;39608;55.630;37.864;2023-06-22T23:54:04;11.13;;;1.30;;
53714;SDS011;39608;55.630;37.864;2023-06-22T23:59:06;1.35;;;1.23;;
